Time;durP1;ratioP1;P1;durP2;ratioP2;P2;SDS_P1;SDS_P2;PMS_P1;PMS_P2;Temp;Humidity;BMP_temperature;BMP_pressure;BME280_temperature;BME280_humidity;BME280_pressure;Samples;Min_cycle;Max_cycle;Signal;HPM_P1;HPM_P2
2021/12/02 00:00:06;;;;;;;5.60;1.02;;;;;;;;;;5095204;28;20600;-81
2021/12/02 00:02:32;;;;;;;8.85;1.02;;;;;;;;;;5113131;27;20089;-81
2021/12/02 00:04:58;;;;;;;5.00;0.88;;;;;;;;;;5089649;28;20090;-78
2021/12/02 00:07:24;;;;;;;5.78;1.10;;;;;;;;;;5108985;28;20502;-78
2021/12/02 00:09:51;;;;;;;7.95;0.77;;;;;;;;;;5091123;28;20051;-80
2021/12/02 00:12:17;;;;;;;4.88;0.80;;;;;;;;;;5108784;28;20055;-81
2021/12/02 00:14:47;;;;;;;4.75;0.80;;;;;;;;;;5091721;28;20116;-81
2021/12/02 00:17:26;;;;;;;4.97;0.80;;;;;;;;;;5108188;28;20054;-80
2021/12/02 00:22:56;;;;;;;4.63;0.80;;;;;;;;;;5108443;28;20131;-78
2021/12/02 00:25:24;;;;;;;8.18;1.30;;;;;;;;;;5108039;28;20032;-78
2021/12/02 00:27:50;;;;;;;8.02;1.35;;;;;;;;;;5107905;28;20043;-81
2021/12/02 00:30:18;;;;;;;6.05;1.00;;;;;;;;;;5091731;28;20110;-78
2021/12/02 00:32:45;;;;;;;5.45;1.08;;;;;;;;;;5099533;28;20047;-78
2021/12/02 00:35:11;;;;;;;5.90;0.90;;;;;;;;;;5087495;28;20522;-78
2021/12/02 00:37:38;;;;;;;3.78;0.85;;;;;;;;;;5109228;28;20565;-81
2021/12/02 00:40:04;;;;;;;6.25;0.80;;;;;;;;;;5090883;28;20075;-81
2021/12/02 00:42:30;;;;;;;8.32;0.82;;;;;;;;;;5108004;28;20043;-81
2021/12/02 00:44:58;;;;;;;5.78;1.00;;;;;;;;;;5094223;28;20112;-81
2021/12/02 00:47:24;;;;;;;7.15;0.80;;;;;;;;;;5112184;28;20051;-80
2021/12/02 00:49:51;;;;;;;6.70;0.90;;;;;;;;;;5095309;28;20386;-78
2021/12/02 00:52:18;;;;;;;8.70;1.00;;;;;;;;;;5113217;28;20057;-78
2021/12/02 00:54:45;;;;;;;5.45;0.70;;;;;;;;;;5094831;28;20526;-78
2021/12/02 00:57:12;;;;;;;6.18;1.33;;;;;;;;;;5112797;28;20036;-81
2021/12/02 00:59:39;;;;;;;5.90;0.70;;;;;;;;;;5112193;28;20039;-81
2021/12/02 01:02:07;;;;;;;4.43;0.60;;;;;;;;;;5094667;28;20046;-78
2021/12/02 01:04:33;;;;;;;3.50;0.80;;;;;;;;;;5094917;28;20042;-78
2021/12/02 01:06:59;;;;;;;5.20;0.80;;;;;;;;;;5111344;28;20387;-78
2021/12/02 01:09:25;;;;;;;3.42;0.80;;;;;;;;;;5113182;28;20031;-78
2021/12/02 01:11:54;;;;;;;4.15;1.25;;;;;;;;;;5094064;28;20083;-78
2021/12/02 01:14:20;;;;;;;9.27;0.82;;;;;;;;;;5095713;28;20388;-79
2021/12/02 01:16:46;;;;;;;6.63;0.75;;;;;;;;;;5107798;28;20032;-78
2021/12/02 01:19:13;;;;;;;7.60;0.60;;;;;;;;;;5084998;28;20147;-78
2021/12/02 01:21:40;;;;;;;5.80;0.60;;;;;;;;;;5111816;28;20044;-78
2021/12/02 01:24:07;;;;;;;2.63;0.50;;;;;;;;;;5111210;28;20043;-78
2021/12/02 01:26:34;;;;;;;4.78;0.68;;;;;;;;;;5111667;28;20511;-81
2021/12/02 01:29:02;;;;;;;3.42;0.68;;;;;;;;;;5097593;28;20071;-78
2021/12/02 01:31:33;;;;;;;4.65;0.50;;;;;;;;;;5111085;28;20069;-77
2021/12/02 01:34:02;;;;;;;10.05;0.77;;;;;;;;;;5112175;28;20505;-77
2021/12/02 01:36:36;;;;;;;3.67;0.50;;;;;;;;;;5094515;28;20069;-83
2021/12/02 01:39:04;;;;;;;6.05;0.80;;;;;;;;;;5111027;28;20489;-82
2021/12/02 01:41:35;;;;;;;3.20;0.70;;;;;;;;;;5094725;28;20078;-82
2021/12/02 01:44:02;;;;;;;5.45;0.70;;;;;;;;;;5094237;28;20454;-82
2021/12/02 01:46:28;;;;;;;3.33;0.50;;;;;;;;;;5111309;28;20039;-77
2021/12/02 01:49:03;;;;;;;3.03;1.02;;;;;;;;;;5110375;28;20051;-76
2021/12/02 01:51:30;;;;;;;2.30;0.40;;;;;;;;;;5111093;28;20049;-83
2021/12/02 01:54:06;;;;;;;1.95;0.25;;;;;;;;;;5111035;28;20039;-82
2021/12/02 01:56:35;;;;;;;4.40;0.60;;;;;;;;;;5093506;28;20070;-83
2021/12/02 01:59:10;;;;;;;4.05;0.40;;;;;;;;;;5093584;28;20134;-77
2021/12/02 02:01:37;;;;;;;1.13;0.30;;;;;;;;;;5110872;28;20051;-77
2021/12/02 02:04:04;;;;;;;1.60;0.40;;;;;;;;;;5110106;28;20062;-78
2021/12/02 02:06:31;;;;;;;2.35;0.38;;;;;;;;;;5110869;28;20043;-77
2021/12/02 02:08:59;;;;;;;0.88;0.28;;;;;;;;;;5110482;28;20128;-83
2021/12/02 02:11:28;;;;;;;4.40;0.38;;;;;;;;;;5110508;28;20077;-84
2021/12/02 02:13:55;;;;;;;3.22;0.60;;;;;;;;;;5093741;28;20054;-84
2021/12/02 02:16:21;;;;;;;1.50;0.40;;;;;;;;;;5109711;28;20043;-78
2021/12/02 02:18:48;;;;;;;5.97;0.75;;;;;;;;;;5111651;28;20046;-78
2021/12/02 02:21:17;;;;;;;4.03;0.63;;;;;;;;;;5093528;28;20052;-78
2021/12/02 02:23:57;;;;;;;2.80;0.50;;;;;;;;;;5110425;28;20075;-79
2021/12/02 02:26:29;;;;;;;4.28;0.63;;;;;;;;;;5110566;28;20062;-79
2021/12/02 02:28:56;;;;;;;3.33;0.60;;;;;;;;;;5107032;28;20051;-78
2021/12/02 02:31:23;;;;;;;5.07;1.75;;;;;;;;;;5093558;28;20441;-83
2021/12/02 02:33:50;;;;;;;1.30;0.43;;;;;;;;;;5110214;28;20039;-84
2021/12/02 02:36:17;;;;;;;4.20;0.45;;;;;;;;;;5110446;28;20050;-84
2021/12/02 02:38:53;;;;;;;2.33;0.40;;;;;;;;;;5110365;28;20082;-78
2021/12/02 02:41:21;;;;;;;2.47;0.50;;;;;;;;;;5109894;28;20092;-78
2021/12/02 02:43:48;;;;;;;3.15;0.47;;;;;;;;;;5092632;28;20039;-78
2021/12/02 02:46:21;;;;;;;4.40;0.70;;;;;;;;;;5093253;28;20091;-78
2021/12/02 02:48:48;;;;;;;1.58;0.38;;;;;;;;;;5109876;28;20513;-78
2021/12/02 02:51:14;;;;;;;7.07;0.68;;;;;;;;;;5109624;28;20048;-78
2021/12/02 02:53:40;;;;;;;2.80;0.43;;;;;;;;;;5109636;28;20072;-83
2021/12/02 02:56:13;;;;;;;4.10;0.50;;;;;;;;;;5109078;28;20039;-83
2021/12/02 02:58:56;;;;;;;2.95;0.60;;;;;;;;;;5092834;28;20395;-83
2021/12/02 03:04:19;;;;;;;1.53;0.50;;;;;;;;;;5101817;28;20085;-83
2021/12/02 03:11:55;;;;;;;5.57;0.50;;;;;;;;;;5102532;28;20048;-79
2021/12/02 03:14:37;;;;;;;2.55;0.68;;;;;;;;;;5104785;28;20126;-79
2021/12/02 03:17:03;;;;;;;2.47;0.43;;;;;;;;;;5101909;28;20074;-79
2021/12/02 03:19:29;;;;;;;7.43;0.70;;;;;;;;;;5104980;28;20031;-79
2021/12/02 03:21:57;;;;;;;3.60;0.50;;;;;;;;;;5100847;28;20552;-83
2021/12/02 03:24:24;;;;;;;5.43;0.80;;;;;;;;;;5088119;28;20122;-83
2021/12/02 03:26:50;;;;;;;2.40;0.63;;;;;;;;;;5100938;28;20092;-83
2021/12/02 03:29:16;;;;;;;3.35;0.50;;;;;;;;;;5104093;28;20071;-83
2021/12/02 03:31:42;;;;;;;2.60;0.50;;;;;;;;;;5090434;28;20040;-83
2021/12/02 03:34:09;;;;;;;6.25;0.65;;;;;;;;;;5102160;28;20101;-83
2021/12/02 03:36:36;;;;;;;3.88;0.52;;;;;;;;;;5104705;28;20519;-83
2021/12/02 03:39:03;;;;;;;5.13;0.80;;;;;;;;;;5107537;28;20043;-83
2021/12/02 03:41:29;;;;;;;6.18;0.70;;;;;;;;;;5109446;28;20116;-78
2021/12/02 03:43:56;;;;;;;4.38;0.65;;;;;;;;;;5094482;28;20120;-78
2021/12/02 03:46:23;;;;;;;3.55;0.68;;;;;;;;;;5109457;28;20144;-82
2021/12/02 03:48:49;;;;;;;3.80;0.60;;;;;;;;;;5108588;28;20036;-82
2021/12/02 03:51:17;;;;;;;5.95;0.90;;;;;;;;;;5109311;28;20438;-78
2021/12/02 03:53:44;;;;;;;4.15;0.68;;;;;;;;;;5108979;28;20058;-77
2021/12/02 03:56:10;;;;;;;3.22;0.70;;;;;;;;;;5108687;28;20186;-78
2021/12/02 03:58:37;;;;;;;6.95;0.73;;;;;;;;;;5108796;28;20046;-77
2021/12/02 04:01:03;;;;;;;2.95;0.50;;;;;;;;;;5108806;28;20085;-79
2021/12/02 04:03:29;;;;;;;2.40;0.40;;;;;;;;;;5108169;28;20044;-78
2021/12/02 04:05:56;;;;;;;1.20;0.40;;;;;;;;;;5107008;28;20119;-78
2021/12/02 04:08:29;;;;;;;6.38;0.60;;;;;;;;;;5097314;28;20035;-83
2021/12/02 04:11:10;;;;;;;3.50;0.40;;;;;;;;;;5109090;28;20492;-83
2021/12/02 04:13:40;;;;;;;3.75;0.30;;;;;;;;;;5109942;28;20047;-82
2021/12/02 04:16:14;;;;;;;3.80;0.40;;;;;;;;;;5106339;28;20052;-82
2021/12/02 04:18:40;;;;;;;2.67;0.40;;;;;;;;;;5097049;28;20073;-83
2021/12/02 04:21:09;;;;;;;4.18;0.50;;;;;;;;;;5107643;28;20137;-83
2021/12/02 04:23:35;;;;;;;3.35;0.50;;;;;;;;;;5105014;28;20124;-83
2021/12/02 04:26:02;;;;;;;4.13;1.15;;;;;;;;;;5101803;28;20123;-83
2021/12/02 04:28:28;;;;;;;3.22;0.35;;;;;;;;;;5108088;28;20032;-83
2021/12/02 04:30:54;;;;;;;3.50;0.30;;;;;;;;;;5107926;28;20071;-83
2021/12/02 04:33:20;;;;;;;2.58;0.40;;;;;;;;;;5091546;28;20036;-83
2021/12/02 04:35:46;;;;;;;1.50;0.30;;;;;;;;;;5091371;28;20043;-83
2021/12/02 04:38:12;;;;;;;2.15;0.40;;;;;;;;;;5105094;28;20499;-83
2021/12/02 04:40:41;;;;;;;3.60;0.40;;;;;;;;;;5106388;28;20158;-79
2021/12/02 04:43:07;;;;;;;1.30;0.30;;;;;;;;;;5107930;28;20044;-77
2021/12/02 04:45:33;;;;;;;1.15;0.40;;;;;;;;;;5108901;28;20494;-77
2021/12/02 04:47:59;;;;;;;2.83;0.40;;;;;;;;;;5108294;28;20088;-83
2021/12/02 04:50:25;;;;;;;5.55;0.40;;;;;;;;;;5090542;28;20051;-77
2021/12/02 04:52:53;;;;;;;1.55;0.28;;;;;;;;;;5091244;28;20075;-83
2021/12/02 04:55:19;;;;;;;1.10;0.15;;;;;;;;;;5108428;28;20372;-83
2021/12/02 04:57:45;;;;;;;1.33;0.20;;;;;;;;;;5108070;28;20483;-83
2021/12/02 05:00:12;;;;;;;1.40;0.20;;;;;;;;;;5107703;28;20116;-83
2021/12/02 05:02:40;;;;;;;2.42;0.30;;;;;;;;;;5105533;28;20380;-83
2021/12/02 05:05:09;;;;;;;0.15;0.10;;;;;;;;;;5101945;28;20109;-83
2021/12/02 05:07:36;;;;;;;0.95;0.20;;;;;;;;;;5102152;28;20475;-83
2021/12/02 05:10:02;;;;;;;2.47;0.32;;;;;;;;;;5102074;28;20059;-82
2021/12/02 05:12:29;;;;;;;1.90;0.20;;;;;;;;;;5102380;28;20096;-83
2021/12/02 05:14:55;;;;;;;1.48;0.20;;;;;;;;;;5081586;28;20040;-82
2021/12/02 05:17:21;;;;;;;1.67;0.20;;;;;;;;;;5085983;28;20494;-82
2021/12/02 05:19:47;;;;;;;1.83;0.20;;;;;;;;;;5102736;28;20104;-83
2021/12/02 05:22:13;;;;;;;2.75;0.30;;;;;;;;;;5102498;28;20143;-83
2021/12/02 05:24:39;;;;;;;1.13;0.30;;;;;;;;;;5101560;28;20039;-83
2021/12/02 05:27:06;;;;;;;1.23;0.20;;;;;;;;;;5091106;28;20424;-82
2021/12/02 05:29:32;;;;;;;2.05;0.20;;;;;;;;;;5090126;28;20063;-83
2021/12/02 05:31:58;;;;;;;0.70;0.30;;;;;;;;;;5102529;28;20043;-83
2021/12/02 05:34:24;;;;;;;1.27;0.30;;;;;;;;;;5089969;28;20122;-83
2021/12/02 05:36:50;;;;;;;3.53;0.20;;;;;;;;;;5111491;28;20055;-83
2021/12/02 05:39:17;;;;;;;1.33;0.20;;;;;;;;;;5111446;28;20031;-83
2021/12/02 05:41:43;;;;;;;1.90;0.20;;;;;;;;;;5094993;28;20474;-82
2021/12/02 05:44:09;;;;;;;2.05;0.43;;;;;;;;;;5094392;28;20047;-83
2021/12/02 05:46:35;;;;;;;2.47;0.20;;;;;;;;;;5094433;28;20040;-82
2021/12/02 05:49:01;;;;;;;1.42;0.30;;;;;;;;;;5111093;28;20360;-82
2021/12/02 05:51:27;;;;;;;1.30;0.30;;;;;;;;;;5093776;28;20035;-83
2021/12/02 05:53:54;;;;;;;0.28;0.10;;;;;;;;;;5111266;28;20043;-82
2021/12/02 05:56:20;;;;;;;0.52;0.20;;;;;;;;;;5111390;28;20043;-82
2021/12/02 05:58:46;;;;;;;0.32;0.10;;;;;;;;;;5094319;28;20502;-82
2021/12/02 06:01:12;;;;;;;1.77;0.28;;;;;;;;;;5092963;28;20050;-82
2021/12/02 06:03:40;;;;;;;3.30;0.35;;;;;;;;;;5110856;28;20040;-82
2021/12/02 06:06:06;;;;;;;1.27;0.20;;;;;;;;;;5110133;28;20046;-83
2021/12/02 06:08:32;;;;;;;2.33;0.38;;;;;;;;;;5110553;28;20036;-82
2021/12/02 06:10:58;;;;;;;1.30;0.30;;;;;;;;;;5109956;28;20052;-83
2021/12/02 06:13:26;;;;;;;1.42;0.35;;;;;;;;;;5110709;28;20051;-83
2021/12/02 06:15:52;;;;;;;1.25;0.30;;;;;;;;;;5110411;28;20050;-78
2021/12/02 06:18:18;;;;;;;0.40;0.22;;;;;;;;;;5110521;28;20066;-77
2021/12/02 06:20:50;;;;;;;1.55;0.40;;;;;;;;;;5110664;28;20073;-77
2021/12/02 06:23:17;;;;;;;0.90;0.40;;;;;;;;;;5110768;28;20066;-78
2021/12/02 06:25:46;;;;;;;0.82;0.38;;;;;;;;;;5110982;28;20051;-78
2021/12/02 06:28:12;;;;;;;1.98;0.30;;;;;;;;;;5109515;28;20054;-83
2021/12/02 06:30:39;;;;;;;1.25;0.30;;;;;;;;;;5110100;28;20040;-78
2021/12/02 06:33:05;;;;;;;3.63;0.65;;;;;;;;;;5090394;28;20051;-82
2021/12/02 06:35:31;;;;;;;3.13;0.40;;;;;;;;;;5080893;28;20055;-78
2021/12/02 06:37:57;;;;;;;1.27;0.28;;;;;;;;;;5109274;28;20052;-78
2021/12/02 06:40:24;;;;;;;0.40;0.20;;;;;;;;;;5093021;28;20458;-78
2021/12/02 06:42:50;;;;;;;2.45;0.47;;;;;;;;;;5109235;28;20521;-79
2021/12/02 06:45:16;;;;;;;3.65;0.30;;;;;;;;;;5109844;28;20047;-82
2021/12/02 06:47:43;;;;;;;3.40;0.30;;;;;;;;;;5109350;28;20126;-79
2021/12/02 06:50:12;;;;;;;3.35;0.38;;;;;;;;;;5092268;28;20513;-78
2021/12/02 06:52:38;;;;;;;5.40;0.52;;;;;;;;;;5109465;28;20051;-78
2021/12/02 06:55:05;;;;;;;2.88;0.35;;;;;;;;;;5109675;28;20047;-82
2021/12/02 06:57:31;;;;;;;4.15;1.10;;;;;;;;;;5109812;28;20507;-82
2021/12/02 07:00:02;;;;;;;5.82;1.70;;;;;;;;;;5105625;28;20044;-82
2021/12/02 07:02:29;;;;;;;6.25;1.02;;;;;;;;;;5105373;28;20052;-78
2021/12/02 07:04:57;;;;;;;1.15;0.40;;;;;;;;;;5108622;28;20047;-78
2021/12/02 07:07:24;;;;;;;4.32;0.30;;;;;;;;;;5109510;28;20063;-78
2021/12/02 07:09:50;;;;;;;2.33;0.30;;;;;;;;;;5109078;28;20035;-78
2021/12/02 07:12:19;;;;;;;2.15;0.40;;;;;;;;;;5109378;28;20055;-78
2021/12/02 07:14:47;;;;;;;2.15;0.30;;;;;;;;;;5108819;28;20047;-79
2021/12/02 07:17:13;;;;;;;2.05;0.40;;;;;;;;;;5109029;28;20135;-78
2021/12/02 07:19:40;;;;;;;1.90;0.28;;;;;;;;;;5108804;28;20089;-82
2021/12/02 07:22:06;;;;;;;2.08;0.32;;;;;;;;;;5108417;28;20044;-78
2021/12/02 07:24:32;;;;;;;0.65;0.20;;;;;;;;;;5091759;28;20057;-78
2021/12/02 07:26:59;;;;;;;1.42;0.40;;;;;;;;;;5108146;28;20040;-82
2021/12/02 07:29:25;;;;;;;4.07;0.47;;;;;;;;;;5109112;28;20039;-82
2021/12/02 07:31:51;;;;;;;3.35;0.45;;;;;;;;;;5093939;28;20039;-78
2021/12/02 07:34:18;;;;;;;2.50;0.70;;;;;;;;;;5109022;28;20498;-82
2021/12/02 07:36:45;;;;;;;4.22;1.50;;;;;;;;;;5109012;28;20039;-83
2021/12/02 07:39:11;;;;;;;4.55;1.30;;;;;;;;;;5092091;28;20086;-77
2021/12/02 07:41:40;;;;;;;2.17;0.80;;;;;;;;;;5091785;28;20039;-77
2021/12/02 07:44:07;;;;;;;2.15;0.93;;;;;;;;;;5107980;28;20546;-82
2021/12/02 07:46:33;;;;;;;1.88;0.88;;;;;;;;;;5091707;28;20040;-78
2021/12/02 07:48:59;;;;;;;1.73;0.80;;;;;;;;;;5090718;28;20041;-77
2021/12/02 07:51:29;;;;;;;2.30;0.80;;;;;;;;;;5108416;28;20517;-78
2021/12/02 07:53:55;;;;;;;5.00;1.40;;;;;;;;;;5107063;28;20048;-78
2021/12/02 07:56:23;;;;;;;3.67;0.50;;;;;;;;;;5092043;28;20482;-82
2021/12/02 07:58:50;;;;;;;1.17;0.40;;;;;;;;;;5091188;28;20075;-78
2021/12/02 08:01:16;;;;;;;1.52;0.30;;;;;;;;;;5091626;28;20089;-78
2021/12/02 08:03:46;;;;;;;0.90;0.22;;;;;;;;;;5091225;28;20463;-79
2021/12/02 08:06:13;;;;;;;2.45;0.30;;;;;;;;;;5107207;28;20040;-82
2021/12/02 08:08:40;;;;;;;0.52;0.20;;;;;;;;;;5091315;28;20036;-82
2021/12/02 08:11:06;;;;;;;2.47;0.40;;;;;;;;;;5107381;28;20051;-78
2021/12/02 08:13:32;;;;;;;0.38;0.20;;;;;;;;;;5108470;28;20108;-82
2021/12/02 08:15:59;;;;;;;2.17;0.30;;;;;;;;;;5107732;28;20140;-79
2021/12/02 08:18:25;;;;;;;2.65;0.25;;;;;;;;;;5108314;28;20047;-78
2021/12/02 08:20:51;;;;;;;3.45;0.70;;;;;;;;;;5106988;28;20096;-82
2021/12/02 08:23:18;;;;;;;2.53;0.55;;;;;;;;;;5108107;28;20035;-82
2021/12/02 08:25:44;;;;;;;1.58;0.30;;;;;;;;;;5108209;28;20120;-82
2021/12/02 08:28:10;;;;;;;2.83;0.40;;;;;;;;;;5090585;28;20032;-79
2021/12/02 08:30:37;;;;;;;0.75;0.30;;;;;;;;;;5107958;28;20119;-79
2021/12/02 08:33:05;;;;;;;3.60;0.30;;;;;;;;;;5107299;28;20051;-78
2021/12/02 08:35:32;;;;;;;3.45;0.47;;;;;;;;;;5108116;28;20050;-81
2021/12/02 08:38:06;;;;;;;1.15;0.40;;;;;;;;;;5107813;28;20047;-81
2021/12/02 08:40:34;;;;;;;1.77;0.57;;;;;;;;;;5108374;28;20143;-78
2021/12/02 08:43:01;;;;;;;3.40;0.47;;;;;;;;;;5107531;28;20127;-78
2021/12/02 08:45:27;;;;;;;4.70;0.47;;;;;;;;;;5091716;28;20499;-78
2021/12/02 08:47:57;;;;;;;1.83;0.50;;;;;;;;;;5091356;28;20360;-79
2021/12/02 08:50:24;;;;;;;3.80;0.60;;;;;;;;;;5108364;28;20491;-79
2021/12/02 08:52:51;;;;;;;4.75;0.60;;;;;;;;;;5107203;28;20044;-79
2021/12/02 08:55:18;;;;;;;2.03;0.50;;;;;;;;;;5108492;28;20043;-79
2021/12/02 08:57:45;;;;;;;3.42;0.70;;;;;;;;;;5108385;28;20050;-82
2021/12/02 09:00:12;;;;;;;4.43;0.90;;;;;;;;;;5107775;28;20048;-82
2021/12/02 09:02:39;;;;;;;2.88;0.70;;;;;;;;;;5108389;28;20051;-82
2021/12/02 09:05:06;;;;;;;3.17;0.55;;;;;;;;;;5083951;28;20032;-82
2021/12/02 09:07:32;;;;;;;4.10;0.80;;;;;;;;;;5108160;28;20039;-82
2021/12/02 09:09:58;;;;;;;1.92;1.00;;;;;;;;;;5108873;27;20040;-82
2021/12/02 09:12:24;;;;;;;4.20;1.00;;;;;;;;;;5105521;28;20055;-82
2021/12/02 09:14:51;;;;;;;3.97;1.02;;;;;;;;;;5108446;28;20044;-79
2021/12/02 09:17:18;;;;;;;2.05;0.35;;;;;;;;;;5104213;28;20036;-79
2021/12/02 09:19:44;;;;;;;1.35;0.40;;;;;;;;;;5095102;28;20387;-79
2021/12/02 09:22:11;;;;;;;3.08;0.40;;;;;;;;;;5111004;28;20039;-83
2021/12/02 09:24:39;;;;;;;1.60;0.45;;;;;;;;;;5111577;28;20043;-83
2021/12/02 09:27:05;;;;;;;2.72;0.40;;;;;;;;;;5110977;28;20073;-79
2021/12/02 09:29:31;;;;;;;3.10;0.55;;;;;;;;;;5111285;28;20123;-82
2021/12/02 09:31:57;;;;;;;2.83;0.73;;;;;;;;;;5111316;28;20043;-82
2021/12/02 09:34:26;;;;;;;3.20;1.10;;;;;;;;;;5111666;28;20083;-78
2021/12/02 09:36:52;;;;;;;4.32;0.60;;;;;;;;;;5110685;28;20043;-79
2021/12/02 09:39:18;;;;;;;2.42;0.50;;;;;;;;;;5111533;28;20091;-78
2021/12/02 09:41:45;;;;;;;3.60;0.60;;;;;;;;;;5111118;28;20058;-78
2021/12/02 09:44:11;;;;;;;2.17;0.77;;;;;;;;;;5106915;28;20054;-78
2021/12/02 09:46:39;;;;;;;3.50;0.40;;;;;;;;;;5103036;28;20040;-78
2021/12/02 09:49:07;;;;;;;4.88;0.60;;;;;;;;;;5110369;28;20114;-78
2021/12/02 09:54:23;;;;;;;5.07;0.60;;;;;;;;;;5110563;28;20047;-78
2021/12/02 09:56:51;;;;;;;5.15;0.57;;;;;;;;;;5111367;28;20497;-79
2021/12/02 09:59:29;;;;;;;1.60;0.47;;;;;;;;;;5093875;28;20498;-78
2021/12/02 10:02:02;;;;;;;2.60;0.52;;;;;;;;;;5110886;28;20051;-78
2021/12/02 10:04:29;;;;;;;2.58;0.63;;;;;;;;;;5110855;28;20039;-79
2021/12/02 10:07:06;;;;;;;4.18;0.60;;;;;;;;;;5111510;28;20039;-83
2021/12/02 10:09:42;;;;;;;1.02;0.30;;;;;;;;;;5111500;28;20070;-79
2021/12/02 10:12:18;;;;;;;2.45;0.38;;;;;;;;;;5110188;28;20138;-83
2021/12/02 10:14:53;;;;;;;2.17;0.38;;;;;;;;;;5110936;28;20046;-82
2021/12/02 10:20:01;;;;;;;1.63;0.35;;;;;;;;;;5110505;28;20090;-79
2021/12/02 10:22:27;;;;;;;3.50;0.88;;;;;;;;;;5110377;28;20051;-83
2021/12/02 10:24:53;;;;;;;2.13;0.50;;;;;;;;;;5092888;28;20040;-83
2021/12/02 10:27:19;;;;;;;2.75;0.57;;;;;;;;;;5111024;28;20149;-77
2021/12/02 10:29:50;;;;;;;1.27;0.30;;;;;;;;;;5109954;28;20082;-81
2021/12/02 10:32:21;;;;;;;2.17;0.30;;;;;;;;;;5109870;28;20036;-81
2021/12/02 10:34:55;;;;;;;3.20;0.35;;;;;;;;;;5091075;28;20039;-77
2021/12/02 10:37:23;;;;;;;2.03;0.80;;;;;;;;;;5095353;28;20042;-77
2021/12/02 10:39:58;;;;;;;1.55;0.30;;;;;;;;;;5098028;28;20048;-81
2021/12/02 10:42:24;;;;;;;1.65;0.40;;;;;;;;;;5109078;28;20043;-82
2021/12/02 10:44:51;;;;;;;2.15;0.32;;;;;;;;;;5110343;28;20035;-80
2021/12/02 10:47:19;;;;;;;3.78;0.95;;;;;;;;;;5110057;28;20074;-77
2021/12/02 10:49:48;;;;;;;5.35;0.55;;;;;;;;;;5100701;28;20471;-77
2021/12/02 10:52:16;;;;;;;2.67;0.50;;;;;;;;;;5105691;28;20495;-75
2021/12/02 10:54:44;;;;;;;1.67;0.35;;;;;;;;;;5109775;28;20046;-82
2021/12/02 10:57:12;;;;;;;2.83;0.30;;;;;;;;;;5109275;28;20043;-74
2021/12/02 10:59:42;;;;;;;2.70;0.55;;;;;;;;;;5093172;28;20484;-75
2021/12/02 11:02:20;;;;;;;0.70;0.25;;;;;;;;;;5109451;28;20043;-81
2021/12/02 11:05:07;;;;;;;2.92;0.30;;;;;;;;;;5079817;28;20035;-81
2021/12/02 11:07:41;;;;;;;1.50;0.40;;;;;;;;;;5092212;28;20042;-82
2021/12/02 11:10:12;;;;;;;1.88;0.40;;;;;;;;;;5109073;28;20384;-74
2021/12/02 11:12:42;;;;;;;1.10;0.32;;;;;;;;;;5109496;28;20481;-74
2021/12/02 11:15:10;;;;;;;2.63;0.30;;;;;;;;;;5108764;28;20122;-80
2021/12/02 11:17:39;;;;;;;1.90;0.50;;;;;;;;;;5110082;28;20179;-81
2021/12/02 11:20:07;;;;;;;1.23;0.50;;;;;;;;;;5108914;28;20043;-76
2021/12/02 11:22:34;;;;;;;1.42;0.35;;;;;;;;;;5109520;28;20225;-82
2021/12/02 11:25:00;;;;;;;2.38;0.40;;;;;;;;;;5108929;28;20039;-81
2021/12/02 11:27:26;;;;;;;0.68;0.30;;;;;;;;;;5109159;28;20856;-82
2021/12/02 11:29:54;;;;;;;0.68;0.32;;;;;;;;;;5091708;28;20044;-82
2021/12/02 11:32:24;;;;;;;0.55;0.20;;;;;;;;;;5092227;28;20051;-76
2021/12/02 11:35:00;;;;;;;1.63;0.57;;;;;;;;;;5092224;28;20055;-81
2021/12/02 11:37:27;;;;;;;2.30;0.40;;;;;;;;;;5091568;28;20096;-76
2021/12/02 11:39:58;;;;;;;2.03;0.60;;;;;;;;;;5092291;28;20533;-81
2021/12/02 11:42:25;;;;;;;1.45;0.50;;;;;;;;;;5092237;28;20071;-76
2021/12/02 11:44:51;;;;;;;0.93;0.50;;;;;;;;;;5108540;28;20105;-76
2021/12/02 11:47:17;;;;;;;1.42;0.43;;;;;;;;;;5108853;28;20039;-81
2021/12/02 11:49:43;;;;;;;1.70;0.55;;;;;;;;;;5108900;28;20039;-76
2021/12/02 11:52:10;;;;;;;1.15;0.50;;;;;;;;;;5106645;28;20031;-76
2021/12/02 11:54:36;;;;;;;1.17;0.50;;;;;;;;;;5096369;28;20040;-76
2021/12/02 11:57:03;;;;;;;1.80;0.57;;;;;;;;;;5091646;28;20133;-81
2021/12/02 11:59:29;;;;;;;1.17;0.52;;;;;;;;;;5085681;28;20062;-76
2021/12/02 12:01:57;;;;;;;0.82;0.40;;;;;;;;;;5082764;28;20047;-76
2021/12/02 12:04:23;;;;;;;3.58;0.47;;;;;;;;;;5108284;28;20035;-76
2021/12/02 12:07:09;;;;;;;1.35;0.50;;;;;;;;;;5109001;28;20646;-76
2021/12/02 12:09:35;;;;;;;3.42;0.60;;;;;;;;;;5109968;28;20031;-81
2021/12/02 12:12:03;;;;;;;1.23;0.40;;;;;;;;;;5107687;28;20148;-76
2021/12/02 12:14:36;;;;;;;1.98;0.57;;;;;;;;;;5108419;28;20043;-80
2021/12/02 12:17:07;;;;;;;1.77;0.50;;;;;;;;;;5107890;28;20048;-80
2021/12/02 12:19:38;;;;;;;2.13;0.47;;;;;;;;;;5108471;28;20071;-81
2021/12/02 12:22:11;;;;;;;1.38;0.40;;;;;;;;;;5108326;28;20096;-81
2021/12/02 12:24:41;;;;;;;3.88;0.50;;;;;;;;;;5091629;28;20388;-77
2021/12/02 12:27:23;;;;;;;1.35;0.40;;;;;;;;;;5098731;28;20043;-76
2021/12/02 12:30:11;;;;;;;1.02;0.40;;;;;;;;;;5088509;28;20100;-76
2021/12/02 12:32:45;;;;;;;5.65;0.60;;;;;;;;;;5095404;28;20043;-76
2021/12/02 12:38:00;;;;;;;1.70;0.50;;;;;;;;;;5107764;28;20438;-76
2021/12/02 12:40:28;;;;;;;2.53;0.60;;;;;;;;;;5111277;28;20047;-80
2021/12/02 12:43:03;;;;;;;2.55;0.60;;;;;;;;;;5111859;28;20046;-81
2021/12/02 12:45:31;;;;;;;1.40;0.40;;;;;;;;;;5111948;28;20391;-81
2021/12/02 12:47:59;;;;;;;2.20;0.50;;;;;;;;;;5103109;28;20036;-80
2021/12/02 12:50:34;;;;;;;1.83;0.43;;;;;;;;;;5107173;28;20035;-76
2021/12/02 12:53:04;;;;;;;1.27;0.40;;;;;;;;;;5111917;28;20035;-80
2021/12/02 12:55:33;;;;;;;1.90;0.73;;;;;;;;;;5080795;28;20529;-80
2021/12/02 12:58:08;;;;;;;3.05;0.60;;;;;;;;;;5094717;28;20061;-80
2021/12/02 13:00:45;;;;;;;1.90;0.50;;;;;;;;;;5111997;28;20100;-80
2021/12/02 13:03:17;;;;;;;2.13;0.60;;;;;;;;;;5111701;28;20823;-80
2021/12/02 13:05:44;;;;;;;4.03;0.82;;;;;;;;;;5094947;28;20086;-76
2021/12/02 13:08:21;;;;;;;1.67;0.60;;;;;;;;;;5111731;28;20047;-76
2021/12/02 13:10:58;;;;;;;1.40;0.60;;;;;;;;;;5111839;28;20049;-79
2021/12/02 13:13:26;;;;;;;1.17;0.50;;;;;;;;;;5111737;28;20511;-80
2021/12/02 13:15:53;;;;;;;1.60;0.57;;;;;;;;;;5111700;28;20066;-80
2021/12/02 13:18:33;;;;;;;1.15;0.55;;;;;;;;;;5111411;28;20338;-79
2021/12/02 13:21:18;;;;;;;1.98;0.50;;;;;;;;;;5111344;28;20047;-76
2021/12/02 13:23:54;;;;;;;2.95;0.70;;;;;;;;;;5111769;28;20479;-76
2021/12/02 13:26:21;;;;;;;1.40;0.57;;;;;;;;;;5111509;28;20507;-76
2021/12/02 13:28:48;;;;;;;1.60;0.60;;;;;;;;;;5111529;28;20146;-76
2021/12/02 13:31:16;;;;;;;5.38;0.75;;;;;;;;;;5110785;28;20039;-76
2021/12/02 13:33:42;;;;;;;1.02;0.47;;;;;;;;;;5111102;28;20089;-76
2021/12/02 13:36:10;;;;;;;1.13;0.40;;;;;;;;;;5110958;28;20156;-76
2021/12/02 13:38:36;;;;;;;2.33;0.70;;;;;;;;;;5092603;28;20394;-80
2021/12/02 13:41:13;;;;;;;0.95;0.32;;;;;;;;;;5115667;27;20099;-80
2021/12/02 13:44:01;;;;;;;0.85;0.40;;;;;;;;;;5109986;28;20051;-80
2021/12/02 13:46:47;;;;;;;1.13;0.40;;;;;;;;;;5084110;28;20042;-76
2021/12/02 13:49:17;;;;;;;2.88;0.63;;;;;;;;;;5110782;28;20040;-75
2021/12/02 13:54:30;;;;;;;2.03;0.50;;;;;;;;;;5132005;27;20502;-75
2021/12/02 13:56:58;;;;;;;3.22;0.57;;;;;;;;;;5093849;28;20047;-76
2021/12/02 13:59:27;;;;;;;1.42;0.60;;;;;;;;;;5110677;28;20048;-76
2021/12/02 14:01:57;;;;;;;1.33;0.50;;;;;;;;;;5111007;28;20498;-75
2021/12/02 14:04:24;;;;;;;3.00;0.68;;;;;;;;;;5110363;28;20526;-76
2021/12/02 14:07:08;;;;;;;2.95;0.52;;;;;;;;;;5110869;28;20406;-80
2021/12/02 14:09:43;;;;;;;1.67;0.40;;;;;;;;;;5110962;28;20037;-80
2021/12/02 14:12:09;;;;;;;1.53;0.73;;;;;;;;;;5110606;28;20159;-75
2021/12/02 14:14:35;;;;;;;2.70;0.52;;;;;;;;;;5109829;28;20132;-76
2021/12/02 14:17:06;;;;;;;2.70;0.60;;;;;;;;;;5093313;28;20042;-80
2021/12/02 14:19:32;;;;;;;2.30;0.90;;;;;;;;;;5110350;28;20054;-80
2021/12/02 14:21:58;;;;;;;1.58;0.60;;;;;;;;;;5110104;28;20043;-80
2021/12/02 14:24:24;;;;;;;2.97;0.70;;;;;;;;;;5110406;28;20050;-80
2021/12/02 14:26:50;;;;;;;2.83;0.70;;;;;;;;;;5110679;28;20027;-76
2021/12/02 14:29:16;;;;;;;2.55;0.63;;;;;;;;;;5092760;28;20092;-76
2021/12/02 14:31:42;;;;;;;3.00;0.60;;;;;;;;;;5092645;28;20055;-76
2021/12/02 14:34:10;;;;;;;1.38;0.57;;;;;;;;;;5110201;28;20048;-75
2021/12/02 14:36:43;;;;;;;2.95;0.63;;;;;;;;;;5095418;28;20039;-76
2021/12/02 14:39:11;;;;;;;1.73;0.80;;;;;;;;;;5093202;28;20433;-76
2021/12/02 14:41:40;;;;;;;1.55;0.80;;;;;;;;;;5110244;28;20078;-76
2021/12/02 14:44:08;;;;;;;3.42;0.95;;;;;;;;;;5108969;28;20127;-76
2021/12/02 14:46:39;;;;;;;3.05;1.30;;;;;;;;;;5109641;28;20526;-76
2021/12/02 14:49:11;;;;;;;3.83;1.50;;;;;;;;;;5077902;28;20065;-75
2021/12/02 14:51:45;;;;;;;3.28;1.20;;;;;;;;;;5109906;28;20130;-78
2021/12/02 14:54:13;;;;;;;2.80;1.00;;;;;;;;;;5109502;28;20039;-79
2021/12/02 14:56:41;;;;;;;3.45;1.10;;;;;;;;;;5109541;28;20043;-79
2021/12/02 14:59:12;;;;;;;1.75;0.80;;;;;;;;;;5094974;28;20047;-79
2021/12/02 15:02:11;;;;;;;3.00;0.70;;;;;;;;;;5109246;28;20075;-79
2021/12/02 15:04:43;;;;;;;2.63;0.70;;;;;;;;;;5061660;28;20048;-79
2021/12/02 15:07:11;;;;;;;4.90;1.30;;;;;;;;;;5109226;28;20077;-76
2021/12/02 15:09:39;;;;;;;5.43;1.88;;;;;;;;;;5109410;28;20043;-79
2021/12/02 15:12:19;;;;;;;3.22;0.80;;;;;;;;;;5092480;28;20069;-79